METAR Data
IDs: Format: Raw Decoded Include TAF

Data at: 0242 UTC 12 May 2021

KGGP 120235Z AUTO 35005KT 10SM CLR 05/00 A3040 RMK AO2
KGGP 120215Z AUTO 34004KT 10SM CLR 05/00 A3039 RMK AO2
KGGP 120155Z AUTO 36005KT 10SM CLR 06/M01 A3038 RMK AO2
KGGP 120135Z AUTO 35005KT 10SM CLR 06/M01 A3037 RMK AO2
KGGP 120115Z AUTO 34005KT 10SM CLR 07/M01 A3036 RMK AO2
KGGP 120055Z AUTO 35006KT 10SM CLR 07/M01 A3035 RMK AO2
KGGP 120035Z AUTO 35008KT 10SM CLR 08/00 A3034 RMK AO2
KGGP 120015Z AUTO 34008KT 10SM CLR 08/M01 A3033 RMK AO2
KGGP 112355Z AUTO 35008KT 10SM CLR 09/M01 A3033 RMK AO2
KGGP 112335Z AUTO 36011KT 10SM CLR 10/M01 A3032 RMK AO2
KGGP 112315Z AUTO 01010KT 10SM CLR 10/M01 A3032 RMK AO2
KGGP 112255Z AUTO 36009KT 10SM CLR 11/00 A3032 RMK AO2
KGGP 112235Z AUTO 35010G17KT 10SM CLR 11/00 A3031 RMK AO2
KGGP 112215Z AUTO 35011G15KT 10SM CLR 11/M01 A3031 RMK AO2
KGGP 112155Z AUTO 34012G18KT 10SM CLR 11/M01 A3031 RMK AO2
KGGP 112135Z AUTO 35010KT 10SM CLR 12/00 A3030 RMK AO2
KGGP 112115Z AUTO 01009G20KT 10SM SCT060 12/00 A3031 RMK AO2
KGGP 112055Z AUTO 02010KT 10SM SCT060 12/00 A3030 RMK AO2
KGGP 112035Z AUTO 33010G16KT 320V020 10SM SCT060 12/00 A3030 RMK AO2
KGGP 112015Z AUTO 34010G17KT 10SM BKN060 12/00 A3030 RMK AO2
KGGP 111955Z AUTO 34011G19KT 330V030 10SM BKN060 12/00 A3031 RMK AO2
KGGP 111935Z AUTO 01007G17KT 320V030 10SM SCT060 12/00 A3031 RMK AO2
KGGP 111915Z AUTO 01008G18KT 10SM BKN060 12/00 A3031 RMK AO2
KGGP 111900Z AUTO 36009KT 10SM BKN060 12/01 A3031 RMK AO2
KGGP 111835Z AUTO 35010KT 10SM SCT060 12/00 A3032 RMK AO2
KGGP 111815Z AUTO 33011G16KT 10SM SCT050 12/00 A3032 RMK AO2
KGGP 111755Z AUTO 35012G16KT 10SM BKN060 11/00 A3033 RMK AO2
KGGP 111735Z AUTO 34010G15KT 10SM SCT047 BKN060 12/01 A3033 RMK AO2
KGGP 111715Z AUTO 36009G15KT 10SM BKN047 OVC060 11/01 A3034 RMK AO2
KGGP 111655Z AUTO 36009G14KT 10SM BKN045 BKN060 10/01 A3035 RMK AO2
KGGP 111635Z AUTO 34007G20KT 10SM SCT043 SCT060 10/01 A3035 RMK AO2
KGGP 111615Z AUTO 02009G14KT 10SM SCT043 10/01 A3034 RMK AO2
KGGP 111555Z AUTO 35005KT 10SM CLR 10/01 A3034 RMK AO2
KGGP 111535Z AUTO 03006KT 10SM CLR 10/01 A3034 RMK AO2
KGGP 111515Z AUTO 01004KT 10SM CLR 10/01 A3034 RMK AO2
KGGP 111455Z AUTO 05005KT 10SM CLR 10/01 A3034 RMK AO2
KGGP 111435Z AUTO 06006KT 10SM CLR 08/01 A3034 RMK AO2
KGGP 111415Z AUTO 03005KT 10SM CLR 08/01 A3034 RMK AO2
KGGP 111355Z AUTO 04005KT 10SM CLR 07/01 A3033 RMK AO2
KGGP 111335Z AUTO 02007KT 10SM CLR 07/01 A3031 RMK AO2
KGGP 111315Z AUTO 03005KT 10SM CLR 06/00 A3031 RMK AO2
KGGP 111255Z AUTO 05005KT 10SM CLR 06/01 A3031 RMK AO2
KGGP 111235Z AUTO 04004KT 10SM CLR 06/01 A3031 RMK AO2
KGGP 111215Z AUTO 02006KT 10SM BKN110 05/01 A3030 RMK AO2
KGGP 111155Z AUTO 03004KT 10SM OVC110 05/01 A3030 RMK AO2
KGGP 111135Z AUTO 03004KT 10SM SCT085 OVC110 04/00 A3030 RMK AO2
KGGP 111115Z AUTO 02003KT 10SM BKN085 OVC110 04/00 A3029 RMK AO2
KGGP 111055Z AUTO 03003KT 10SM OVC085 04/00 A3028 RMK AO2
KGGP 111035Z AUTO 02005KT 10SM BKN085 OVC120 04/00 A3027 RMK AO2
KGGP 111015Z AUTO 01005KT 10SM BKN085 OVC120 04/01 A3026 RMK AO2
KGGP 110955Z AUTO 02004KT 10SM OVC120 04/00 A3026 RMK AO2
KGGP 110935Z AUTO 01003KT 10SM OVC120 04/00 A3025 RMK AO2
KGGP 110915Z AUTO 01005KT 10SM SCT100 OVC120 04/00 A3024 RMK AO2
KGGP 110855Z AUTO 01005KT 10SM SCT100 OVC120 05/00 A3024 RMK AO2
KGGP 110835Z AUTO 02006KT 10SM BKN090 OVC120 05/00 A3022 RMK AO2
KGGP 110815Z AUTO 02007KT 10SM OVC090 05/00 A3022 RMK AO2
KGGP 110755Z AUTO 02006KT 10SM OVC090 05/00 A3022 RMK AO2
KGGP 110735Z AUTO 02006KT 10SM OVC090 05/00 A3021 RMK AO2
KGGP 110715Z AUTO 02005KT 10SM OVC080 06/00 A3021 RMK AO2
KGGP 110655Z AUTO 01007KT 10SM BKN090 BKN120 06/00 A3021 RMK AO2
KGGP 110635Z AUTO 02005KT 10SM SCT090 BKN110 06/00 A3021 RMK AO2
KGGP 110615Z AUTO 02005KT 10SM OVC110 06/01 A3021 RMK AO2
KGGP 110555Z AUTO 36007KT 10SM BKN095 OVC110 06/01 A3021 RMK AO2
KGGP 110535Z AUTO 01006KT 10SM SCT049 BKN085 OVC110 06/02 A3020 RMK AO2
KGGP 110515Z AUTO 02005KT 10SM -RA SCT049 SCT055 OVC075 06/03 A3019 RMK AO2
KGGP 110455Z AUTO 01004KT 10SM BKN060 BKN075 OVC085 07/03 A3019 RMK AO2
KGGP 110435Z AUTO 02003KT 10SM -DZ BKN060 BKN070 OVC080 07/03 A3019 RMK AO2
KGGP 110415Z AUTO 02003KT 10SM -DZ OVC080 07/04 A3020 RMK AO2
KGGP 110355Z AUTO 01004KT 10SM -DZ OVC080 07/04 A3020 RMK AO2
KGGP 110335Z AUTO 01007KT 10SM -RA SCT044 SCT050 OVC080 07/03 A3020 RMK AO2
KGGP 110315Z AUTO 36006KT 10SM SCT065 OVC080 07/04 A3020 RMK AO2
KGGP 110255Z AUTO 01007KT 10SM OVC080 08/04 A3019 RMK AO2
KGGP 110235Z AUTO 36008KT 10SM SCT034 SCT045 OVC080 08/05 A3018 RMK AO2
KGGP 110215Z AUTO 35006KT 10SM SCT032 SCT045 OVC080 09/07 A3018 RMK AO2
KGGP 110155Z AUTO 33004KT 10SM -DZ BKN060 BKN070 OVC080 09/07 A3017 RMK AO2
KGGP 110135Z AUTO 00000KT 10SM RA SCT043 OVC050 09/07 A3016 RMK AO2
KGGP 110115Z AUTO 00000KT 10SM RA BKN045 OVC049 09/07 A3016 RMK AO2
KGGP 110055Z AUTO 30003KT 10SM -RA SCT049 BKN060 OVC070 09/07 A3015 RMK AO2 P0001
KGGP 110035Z AUTO 32003KT 10SM -RA SCT060 OVC080 09/07 A3015 RMK AO2
KGGP 110015Z AUTO 34004KT 10SM -RA SCT048 BKN080 OVC090 09/07 A3014 RMK AO2
KGGP 102355Z AUTO 32003KT 10SM -DZ SCT050 BKN075 OVC090 10/06 A3014 RMK AO2
KGGP 102335Z AUTO 31003KT 10SM -RA OVC048 09/07 A3014 RMK AO2
KGGP 102315Z AUTO 33006KT 10SM -RA BKN046 BKN060 OVC075 10/07 A3014 RMK AO2
KGGP 102255Z AUTO 31005KT 10SM -DZ SCT055 OVC075 10/07 A3013 RMK AO2 P0001
KGGP 102235Z AUTO 32006KT 10SM -RA SCT048 BKN055 OVC065 10/07 A3013 RMK AO2 P0001
KGGP 102215Z AUTO 31003KT 10SM -RA SCT044 OVC060 10/07 A3013 RMK AO2
KGGP 102155Z AUTO 33008KT 5SM -RA SCT044 OVC050 10/06 A3013 RMK AO2 P0001
KGGP 102135Z AUTO 22006KT 10SM -RA BKN065 BKN070 OVC080 13/05 A3011 RMK AO2
KGGP 102115Z AUTO 25003KT 10SM BKN060 BKN070 14/04 A3011 RMK AO2
KGGP 102055Z AUTO 18003KT 10SM SCT060 SCT070 15/05 A3012 RMK AO2
KGGP 102035Z AUTO 21004KT 10SM SCT060 14/03 A3012 RMK AO2
KGGP 102015Z AUTO 31003KT 10SM CLR 15/04 A3013 RMK AO2
KGGP 101955Z AUTO 00000KT 10SM SCT060 SCT085 SCT110 13/02 A3013 RMK AO2
KGGP 101935Z AUTO 28003KT 10SM SCT060 BKN085 OVC110 13/02 A3014 RMK AO2
KGGP 101915Z AUTO 00000KT 10SM OVC075 12/02 A3014 RMK AO2
KGGP 101855Z AUTO 33005KT 10SM SCT060 OVC085 12/03 A3014 RMK AO2
KGGP 101835Z AUTO 34006KT 10SM SCT049 BKN075 OVC085 12/03 A3015 RMK AO2
KGGP 101815Z AUTO 31006KT 10SM BKN065 OVC085 12/03 A3015 RMK AO2
KGGP 101755Z AUTO 33004KT 10SM SCT047 BKN070 BKN085 13/04 A3014 RMK AO2
KGGP 101735Z AUTO 34006KT 10SM SCT042 SCT075 BKN080 13/03 A3014 RMK AO2
KGGP 101715Z AUTO 28005KT 10SM SCT042 SCT075 BKN100 13/04 A3014 RMK AO2
KGGP 101655Z AUTO 27006KT 10SM SCT070 BKN120 13/05 A3015 RMK AO2
KGGP 101635Z AUTO 27008KT 10SM SCT120 12/05 A3015 RMK AO2
KGGP 101615Z AUTO 27005KT 10SM SCT120 12/06 A3015 RMK AO2
KGGP 101555Z AUTO 25005KT 10SM OVC120 11/05 A3015 RMK AO2
KGGP 101535Z AUTO 28005KT 10SM OVC120 11/05 A3015 RMK AO2
KGGP 101515Z AUTO 26005KT 10SM OVC120 10/05 A3015 RMK AO2
KGGP 101455Z AUTO 27003KT 10SM OVC120 10/04 A3014 RMK AO2